createdAt,value
2022-08-18T00:00:20.459Z,55.55
2022-08-18T00:03:01.164Z,51.83
2022-08-18T00:05:34.550Z,50.15
2022-08-18T00:08:05.566Z,51.85
2022-08-18T00:10:32.865Z,54.72
2022-08-18T00:13:01.354Z,59.60
2022-08-18T00:15:28.159Z,53.58
2022-08-18T00:17:54.584Z,53.72
2022-08-18T00:20:23.986Z,56.58
2022-08-18T00:22:51.684Z,51.38
2022-08-18T00:25:19.656Z,53.08
2022-08-18T00:27:46.150Z,48.22
2022-08-18T00:30:15.859Z,57.47
2022-08-18T00:32:46.971Z,52.85
2022-08-18T00:35:29.069Z,55.75
2022-08-18T00:37:58.029Z,50.40
2022-08-18T00:40:37.620Z,54.47
2022-08-18T00:43:06.512Z,50.00
2022-08-18T00:45:36.491Z,59.90
2022-08-18T00:48:04.641Z,54.30
2022-08-18T00:50:43.315Z,53.28
2022-08-18T00:53:14.284Z,55.42
2022-08-18T00:55:44.316Z,51.30
2022-08-18T00:58:27.732Z,50.50
2022-08-18T01:00:54.776Z,52.70
2022-08-18T01:03:24.995Z,47.90
2022-08-18T01:05:58.126Z,49.03
2022-08-18T01:08:28.743Z,48.58
2022-08-18T01:10:56.312Z,56.97
2022-08-18T01:13:27.630Z,51.53
2022-08-18T01:15:54.477Z,50.47
2022-08-18T01:18:39.753Z,50.00
2022-08-18T01:21:33.845Z,59.65
2022-08-18T01:24:04.707Z,52.58
2022-08-18T01:26:34.801Z,59.47
2022-08-18T01:29:18.774Z,70.32
2022-08-18T01:31:56.039Z,61.05
2022-08-18T01:34:26.281Z,57.17
2022-08-18T01:36:54.840Z,61.33
2022-08-18T01:41:21.302Z,58.63
2022-08-18T01:42:09.235Z,68.93
2022-08-18T01:44:36.130Z,60.70
2022-08-18T01:47:02.662Z,58.63
2022-08-18T01:49:29.210Z,65.88
2022-08-18T01:51:55.854Z,58.30
2022-08-18T01:54:22.759Z,64.43
2022-08-18T01:56:49.456Z,67.35
2022-08-18T01:59:16.112Z,61.55
2022-08-18T02:01:48.933Z,64.70
2022-08-18T02:04:34.975Z,70.10
2022-08-18T02:07:05.087Z,60.60
2022-08-18T02:09:31.563Z,61.47
2022-08-18T02:11:58.014Z,59.33
2022-08-18T02:14:25.063Z,61.20
2022-08-18T02:16:55.475Z,64.85
2022-08-18T02:19:28.250Z,62.65
2022-08-18T02:21:54.757Z,56.78
2022-08-18T02:24:21.237Z,57.75
2022-08-18T02:26:47.643Z,60.78
2022-08-18T02:29:14.170Z,66.03
2022-08-18T02:31:40.657Z,57.55
2022-08-18T02:34:07.063Z,69.88
2022-08-18T02:36:33.467Z,61.30
2022-08-18T02:39:00.238Z,67.35
2022-08-18T02:41:29.492Z,72.50
2022-08-18T02:43:57.432Z,64.78
2022-08-18T02:46:23.896Z,66.80
2022-08-18T02:48:56.978Z,62.65
2022-08-18T02:51:23.572Z,63.20
2022-08-18T02:53:53.799Z,65.53
2022-08-18T02:56:32.985Z,66.47
2022-08-18T02:59:10.585Z,67.60
2022-08-18T03:01:41.276Z,66.38
2022-08-18T03:04:09.920Z,64.22
2022-08-18T03:06:37.975Z,59.80
2022-08-18T03:09:09.931Z,58.92
2022-08-18T03:11:37.708Z,65.25
2022-08-18T03:14:05.757Z,73.00
2022-08-18T03:16:36.129Z,62.78
2022-08-18T03:19:03.443Z,60.85
2022-08-18T03:21:35.586Z,56.65
2022-08-18T03:24:02.969Z,53.40
2022-08-18T03:26:36.177Z,56.00
2022-08-18T03:29:02.628Z,57.10
2022-08-18T03:31:31.221Z,58.30
2022-08-18T03:33:59.891Z,63.35
2022-08-18T03:36:30.560Z,54.03
2022-08-18T03:38:57.427Z,64.13
2022-08-18T03:41:44.015Z,56.28
2022-08-18T03:44:14.632Z,60.28
2022-08-18T03:46:43.485Z,54.28
2022-08-18T03:49:10.413Z,55.95
2022-08-18T03:51:37.351Z,55.22
2022-08-18T03:54:06.070Z,57.72
2022-08-18T03:56:36.246Z,52.17
2022-08-18T03:59:07.930Z,59.60
2022-08-18T04:01:40.611Z,59.90
2022-08-18T04:04:11.211Z,54.90
2022-08-18T04:06:51.132Z,52.85
2022-08-18T04:09:18.780Z,56.80
2022-08-18T04:11:46.472Z,57.42
2022-08-18T04:14:15.247Z,51.80
2022-08-18T04:16:42.196Z,72.55
2022-08-18T04:19:09.873Z,71.75
2022-08-18T04:21:39.423Z,62.70
2022-08-18T04:24:07.321Z,59.92
2022-08-18T04:26:37.639Z,53.42
2022-08-18T04:29:05.966Z,55.53
2022-08-18T04:31:32.600Z,64.38
2022-08-18T04:34:00.963Z,65.25
2022-08-18T04:36:29.422Z,59.83
2022-08-18T04:38:57.109Z,63.40
2022-08-18T04:41:27.505Z,62.13
2022-08-18T04:43:55.649Z,65.90
2022-08-18T04:46:23.881Z,66.18
2022-08-18T04:48:52.108Z,62.70
2022-08-18T04:52:38.308Z,55.78
2022-08-18T04:54:07.169Z,67.82
2022-08-18T04:56:37.745Z,71.57
2022-08-18T04:59:09.938Z,63.50
2022-08-18T05:01:45.661Z,57.33
2022-08-18T05:04:14.167Z,63.25
2022-08-18T05:06:43.340Z,58.33
2022-08-18T05:09:12.653Z,67.00
2022-08-18T05:11:47.081Z,69.90
2022-08-18T05:14:14.410Z,68.80
2022-08-18T05:16:42.197Z,68.60
2022-08-18T05:19:19.722Z,75.00
2022-08-18T05:21:50.670Z,73.07
2022-08-18T05:24:18.877Z,72.40
2022-08-18T05:26:45.803Z,68.28
2022-08-18T05:29:19.036Z,65.13
2022-08-18T05:31:46.645Z,69.68
2022-08-18T05:34:13.095Z,66.07
2022-08-18T05:36:48.678Z,73.82
2022-08-18T05:39:17.902Z,70.38
2022-08-18T05:41:49.005Z,68.20
2022-08-18T05:44:19.875Z,64.03
2022-08-18T05:46:52.213Z,65.63
2022-08-18T05:49:20.537Z,65.22
2022-08-18T05:51:50.882Z,61.35
2022-08-18T05:54:39.807Z,61.00
2022-08-18T05:57:17.204Z,59.85
2022-08-18T05:59:45.405Z,63.92
2022-08-18T06:02:20.185Z,60.15
2022-08-18T06:04:55.942Z,59.58
2022-08-18T06:07:34.592Z,56.17
2022-08-18T06:10:02.365Z,58.10
2022-08-18T06:12:37.349Z,56.03
2022-08-18T06:15:13.205Z,70.57
2022-08-18T06:18:17.356Z,68.38
2022-08-18T06:21:12.832Z,55.83
2022-08-18T06:23:46.797Z,54.95
2022-08-18T06:26:17.669Z,65.53
2022-08-18T06:29:08.747Z,57.85
2022-08-18T06:31:46.533Z,56.05
2022-08-18T06:34:31.143Z,59.88
2022-08-18T06:37:10.464Z,55.53
2022-08-18T06:39:57.007Z,51.95
2022-08-18T06:42:31.339Z,49.40
2022-08-18T06:45:06.689Z,52.17
2022-08-18T06:47:43.136Z,49.42
2022-08-18T06:50:26.417Z,47.92
2022-08-18T06:52:59.002Z,43.50
2022-08-18T06:55:40.911Z,42.58
2022-08-18T06:58:16.894Z,41.45
2022-08-18T07:00:55.016Z,46.08
2022-08-18T07:03:40.422Z,41.33
2022-08-18T07:06:24.405Z,36.58
2022-08-18T07:08:56.130Z,32.75
2022-08-18T07:11:31.586Z,30.13
2022-08-18T07:14:16.459Z,31.48
2022-08-18T07:17:00.033Z,29.88
2022-08-18T07:19:31.870Z,34.97
2022-08-18T07:22:11.759Z,29.80
2022-08-18T07:24:40.816Z,34.05
2022-08-18T07:27:19.936Z,25.92
2022-08-18T07:30:05.715Z,26.73
2022-08-18T07:32:40.426Z,21.90
2022-08-18T07:35:09.508Z,23.75
2022-08-18T07:37:48.172Z,21.48
2022-08-18T07:40:29.206Z,27.30
2022-08-18T07:43:02.665Z,22.05
2022-08-18T07:45:46.929Z,19.40
2022-08-18T07:48:38.319Z,22.23
2022-08-18T07:51:28.486Z,23.27
2022-08-18T07:54:45.494Z,21.90
2022-08-18T07:57:25.036Z,20.63
2022-08-18T08:00:23.240Z,21.65
2022-08-18T08:03:09.941Z,26.45
2022-08-18T08:05:48.885Z,19.08
2022-08-18T08:08:54.846Z,22.38
2022-08-18T08:11:56.752Z,19.40
2022-08-18T08:14:29.358Z,23.35
2022-08-18T08:17:25.376Z,24.50
2022-08-18T08:20:22.221Z,18.17
2022-08-18T08:22:58.260Z,16.25
2022-08-18T08:25:54.165Z,17.98
2022-08-18T08:28:42.257Z,20.98
2022-08-18T08:31:44.928Z,20.77
2022-08-18T08:34:25.733Z,21.85
2022-08-18T08:37:00.918Z,20.98
2022-08-18T08:39:45.235Z,20.60
2022-08-18T08:42:30.716Z,19.77
2022-08-18T08:45:23.630Z,19.73
2022-08-18T08:48:08.904Z,16.65
2022-08-18T08:50:43.691Z,17.48
2022-08-18T08:53:26.182Z,17.73
2022-08-18T08:56:02.046Z,18.63
2022-08-18T08:58:37.447Z,17.45
2022-08-18T09:01:05.947Z,16.38
2022-08-18T09:03:53.341Z,19.00
2022-08-18T09:07:08.186Z,15.05
2022-08-18T09:09:43.948Z,15.63
2022-08-18T09:12:22.315Z,14.35
2022-08-18T09:14:51.868Z,13.63
2022-08-18T09:17:53.330Z,15.10
2022-08-18T09:20:35.303Z,14.60
2022-08-18T09:23:11.534Z,12.80
2022-08-18T09:25:37.893Z,10.85
2022-08-18T09:28:16.918Z,17.58
2022-08-18T09:31:05.525Z,12.68
2022-08-18T09:33:38.366Z,14.07
2022-08-18T09:36:25.689Z,13.45
2022-08-18T09:39:38.670Z,13.68
2022-08-18T09:42:14.250Z,10.65
2022-08-18T09:44:48.072Z,8.80
2022-08-18T09:47:20.796Z,10.48
2022-08-18T09:49:53.512Z,10.70
2022-08-18T09:52:21.108Z,10.02
2022-08-18T09:54:59.050Z,9.00
2022-08-18T10:00:33.468Z,8.75
2022-08-18T10:03:01.086Z,11.35
2022-08-18T10:05:31.184Z,9.13
2022-08-18T10:08:06.891Z,8.40
2022-08-18T10:11:09.085Z,11.43
2022-08-18T10:13:49.508Z,10.27
2022-08-18T10:17:13.241Z,9.90
2022-08-18T10:19:44.308Z,8.63
2022-08-18T10:22:13.173Z,9.17
2022-08-18T10:24:56.022Z,10.38
2022-08-18T10:27:48.967Z,10.18
2022-08-18T10:30:57.689Z,9.00
2022-08-18T10:34:17.114Z,8.88
2022-08-18T10:37:00.392Z,10.57
2022-08-18T10:39:41.305Z,11.90
2022-08-18T10:42:30.839Z,10.60
2022-08-18T10:45:10.321Z,10.10
2022-08-18T10:47:37.335Z,10.52
2022-08-18T10:50:09.215Z,9.05
2022-08-18T10:53:17.085Z,10.73
2022-08-18T10:55:50.533Z,7.85
2022-08-18T10:58:48.865Z,9.18
2022-08-18T11:01:46.293Z,7.47
2022-08-18T11:04:33.139Z,8.45
2022-08-18T11:07:15.714Z,7.13
2022-08-18T11:09:57.265Z,7.13
2022-08-18T11:13:08.903Z,7.00
2022-08-18T11:15:58.983Z,8.27
2022-08-18T11:18:43.437Z,6.03
2022-08-18T11:21:41.770Z,6.50
2022-08-18T11:24:24.160Z,8.85
2022-08-18T11:26:57.538Z,5.95
2022-08-18T11:29:36.494Z,4.82
2022-08-18T11:32:21.795Z,4.55
2022-08-18T11:34:58.474Z,7.00
2022-08-18T11:37:51.442Z,5.88
2022-08-18T11:46:28.201Z,5.82
2022-08-18T11:48:59.864Z,5.20
2022-08-18T11:51:30.291Z,4.40
2022-08-18T11:54:04.763Z,4.15
2022-08-18T11:56:37.669Z,4.20
2022-08-18T11:59:06.585Z,4.97
2022-08-18T12:01:43.238Z,4.22
2022-08-18T12:04:34.391Z,3.78
2022-08-18T12:07:08.094Z,4.80
2022-08-18T12:12:33.408Z,6.75
2022-08-18T12:15:10.493Z,4.55
2022-08-18T12:20:39.142Z,3.53
2022-08-18T12:23:05.676Z,4.70
2022-08-18T12:25:32.298Z,3.72
2022-08-18T12:27:58.719Z,3.25
2022-08-18T12:30:25.133Z,3.85
2022-08-18T12:35:41.800Z,3.58
2022-08-18T12:38:12.865Z,4.15
2022-08-18T12:40:42.107Z,3.97
2022-08-18T12:43:09.303Z,3.95
2022-08-18T12:48:23.013Z,3.33
2022-08-18T12:53:57.787Z,5.20
2022-08-18T12:56:27.166Z,3.88
2022-08-18T12:58:54.674Z,4.30
2022-08-18T13:01:23.195Z,3.72
2022-08-18T13:04:12.797Z,6.03
2022-08-18T13:06:58.806Z,3.45
2022-08-18T13:09:34.882Z,3.25
2022-08-18T13:12:16.390Z,3.55
2022-08-18T13:14:44.709Z,4.00
2022-08-18T13:17:29.490Z,4.53
2022-08-18T13:19:58.732Z,4.82
2022-08-18T13:22:32.763Z,3.72
2022-08-18T13:25:01.641Z,4.47
2022-08-18T13:27:33.685Z,4.00
2022-08-18T13:30:29.787Z,5.63
2022-08-18T13:33:02.419Z,5.00
2022-08-18T13:35:37.951Z,5.45
2022-08-18T13:38:14.280Z,5.45
2022-08-18T13:40:45.574Z,7.50
2022-08-18T13:43:15.857Z,6.18
2022-08-18T13:45:46.798Z,5.38
2022-08-18T13:48:14.580Z,5.70
2022-08-18T13:50:41.749Z,4.60
2022-08-18T13:53:19.338Z,5.25
2022-08-18T13:55:46.710Z,5.57
2022-08-18T13:58:20.330Z,4.72
2022-08-18T14:00:52.213Z,4.40
2022-08-18T14:03:42.748Z,4.18
2022-08-18T14:06:13.270Z,3.55
2022-08-18T14:08:40.552Z,3.33
2022-08-18T14:11:08.357Z,4.05
2022-08-18T14:13:38.358Z,4.97
2022-08-18T14:16:11.123Z,5.75
2022-08-18T14:19:09.814Z,6.18
2022-08-18T14:22:01.533Z,2.90
2022-08-18T14:24:48.707Z,4.03
2022-08-18T14:27:16.961Z,3.92
2022-08-18T14:29:46.903Z,4.70
2022-08-18T14:32:21.946Z,4.30
2022-08-18T14:35:24.466Z,2.83
2022-08-18T14:37:47.759Z,4.15
2022-08-18T14:40:14.855Z,2.92
2022-08-18T14:42:54.864Z,4.07
2022-08-18T14:45:31.428Z,3.22
2022-08-18T14:48:02.380Z,3.80
2022-08-18T14:50:33.380Z,4.15
2022-08-18T14:52:59.819Z,4.22
2022-08-18T14:55:26.796Z,6.60
2022-08-18T14:57:53.660Z,3.33
2022-08-18T15:00:22.698Z,3.08
2022-08-18T15:02:49.301Z,5.07
2022-08-18T15:05:19.779Z,5.63
2022-08-18T15:07:50.780Z,3.38
2022-08-18T15:10:20.020Z,6.57
2022-08-18T15:12:50.937Z,5.22
2022-08-18T15:15:18.506Z,4.55
2022-08-18T15:17:52.487Z,3.50
2022-08-18T15:20:20.674Z,4.68
2022-08-18T15:23:13.816Z,4.03
2022-08-18T15:25:44.549Z,3.88
2022-08-18T15:28:23.731Z,3.50
2022-08-18T15:31:16.556Z,3.97
2022-08-18T15:33:38.958Z,3.33
2022-08-18T15:36:05.623Z,4.55
2022-08-18T15:38:36.832Z,3.65
2022-08-18T15:41:05.993Z,4.22
2022-08-18T15:43:45.908Z,5.53
2022-08-18T15:46:13.997Z,6.85
2022-08-18T15:48:43.437Z,5.28
2022-08-18T15:51:12.124Z,4.03
2022-08-18T15:53:40.029Z,4.28
2022-08-18T15:56:20.972Z,4.50
2022-08-18T15:58:48.102Z,6.57
2022-08-18T16:01:29.908Z,4.53
2022-08-18T16:03:59.584Z,5.88
2022-08-18T16:06:27.851Z,5.07
2022-08-18T16:08:59.823Z,4.45
2022-08-18T16:11:29.409Z,4.57
2022-08-18T16:13:58.679Z,3.55
2022-08-18T16:16:29.319Z,5.65
2022-08-18T16:19:04.655Z,3.97
2022-08-18T16:21:31.092Z,5.32
2022-08-18T16:23:58.225Z,5.38
2022-08-18T16:26:24.673Z,3.40
2022-08-18T16:28:52.341Z,3.47
2022-08-18T16:31:24.902Z,5.68
2022-08-18T16:33:53.502Z,4.57
2022-08-18T16:36:20.663Z,4.80
2022-08-18T16:38:47.283Z,4.95
2022-08-18T16:41:15.965Z,3.97
2022-08-18T16:43:45.565Z,4.65
2022-08-18T16:46:15.383Z,4.78
2022-08-18T16:48:45.688Z,4.85
2022-08-18T16:51:14.233Z,6.22
2022-08-18T16:53:40.901Z,3.42
2022-08-18T16:56:15.152Z,5.55
2022-08-18T16:59:00.277Z,4.55
2022-08-18T17:01:49.147Z,6.63
2022-08-18T17:04:21.020Z,4.72
2022-08-18T17:06:47.750Z,5.65
2022-08-18T17:09:15.100Z,6.65
2022-08-18T17:11:51.603Z,4.80
2022-08-18T17:14:23.810Z,6.45
2022-08-18T17:16:55.357Z,4.32
2022-08-18T17:19:27.713Z,5.55
2022-08-18T17:21:54.261Z,4.60
2022-08-18T17:24:31.193Z,6.72
2022-08-18T17:27:25.770Z,6.80
2022-08-18T17:30:11.340Z,5.63
2022-08-18T17:35:09.221Z,5.28
2022-08-18T17:37:37.380Z,4.05
2022-08-18T17:40:18.510Z,5.55
2022-08-18T17:42:44.947Z,6.40
2022-08-18T17:45:22.051Z,4.53
2022-08-18T17:47:58.965Z,5.88
2022-08-18T17:51:00.121Z,5.05
2022-08-18T17:53:27.511Z,4.20
2022-08-18T17:56:05.297Z,4.38
2022-08-18T17:58:44.843Z,4.75
2022-08-18T18:01:12.708Z,4.53
2022-08-18T18:03:40.064Z,5.60
2022-08-18T18:06:29.585Z,6.35
2022-08-18T18:09:06.118Z,4.85
2022-08-18T18:11:47.032Z,4.45
2022-08-18T18:14:38.723Z,5.05
2022-08-18T18:17:18.169Z,5.32
2022-08-18T18:19:47.950Z,6.82
2022-08-18T18:22:20.328Z,4.50
2022-08-18T18:24:54.719Z,5.03
2022-08-18T18:27:26.510Z,4.07
2022-08-18T18:30:27.552Z,4.85
2022-08-18T18:33:03.052Z,7.72
2022-08-18T18:35:31.102Z,7.03
2022-08-18T18:38:20.957Z,5.05
2022-08-18T18:41:01.247Z,5.68
2022-08-18T18:43:33.555Z,5.80
2022-08-18T18:46:25.062Z,5.35
2022-08-18T18:49:18.779Z,5.00
2022-08-18T18:52:10.105Z,5.43
2022-08-18T18:54:55.414Z,5.30
2022-08-18T18:57:43.373Z,6.65
2022-08-18T19:00:37.489Z,4.93
2022-08-18T19:03:43.146Z,5.82
2022-08-18T19:06:29.065Z,5.90
2022-08-18T19:09:24.282Z,6.90
2022-08-18T19:11:58.359Z,5.53
2022-08-18T19:14:30.318Z,7.20
2022-08-18T19:17:01.572Z,5.30
2022-08-18T19:19:37.862Z,9.07
2022-08-18T19:22:18.609Z,5.80
2022-08-18T19:24:56.288Z,6.93
2022-08-18T19:27:34.163Z,6.35
2022-08-18T19:30:06.917Z,6.03
2022-08-18T19:32:45.324Z,5.13
2022-08-18T19:35:19.537Z,4.85
2022-08-18T19:38:04.510Z,5.70
2022-08-18T19:40:52.750Z,6.75
2022-08-18T19:43:32.870Z,6.63
2022-08-18T19:46:10.981Z,5.13
2022-08-18T19:48:43.087Z,5.13
2022-08-18T19:51:28.952Z,6.22
2022-08-18T19:54:17.162Z,5.28
2022-08-18T19:57:17.786Z,4.82
2022-08-18T19:59:57.189Z,4.65
2022-08-18T20:02:46.935Z,6.00
2022-08-18T20:05:52.862Z,6.65
2022-08-18T20:08:51.164Z,5.50
2022-08-18T20:11:41.800Z,4.97
2022-08-18T20:14:20.547Z,5.22
2022-08-18T20:17:26.849Z,6.93
2022-08-18T20:19:57.589Z,6.43
2022-08-18T20:22:24.487Z,6.88
2022-08-18T20:25:05.768Z,5.63
2022-08-18T20:27:38.254Z,5.80
2022-08-18T20:30:39.861Z,6.78
2022-08-18T20:33:15.341Z,5.88
2022-08-18T20:35:51.777Z,6.10
2022-08-18T20:38:36.850Z,5.55
2022-08-18T20:41:21.829Z,6.38
2022-08-18T20:43:51.353Z,6.20
2022-08-18T20:46:48.551Z,7.80
2022-08-18T20:49:34.059Z,7.85
2022-08-18T20:52:34.768Z,5.55
2022-08-18T20:55:15.120Z,6.25
2022-08-18T20:57:43.983Z,7.45
2022-08-18T21:00:26.722Z,5.35
2022-08-18T21:05:31.482Z,8.60
2022-08-18T21:07:57.871Z,7.30
2022-08-18T21:10:28.867Z,6.85
2022-08-18T21:13:03.174Z,6.57
2022-08-18T21:15:36.396Z,6.47
2022-08-18T21:20:34.279Z,6.40
2022-08-18T21:23:08.854Z,5.20
2022-08-18T21:25:36.279Z,5.50
2022-08-18T21:28:05.657Z,6.65
2022-08-18T21:30:32.103Z,6.22
2022-08-18T21:32:58.864Z,5.18
2022-08-18T21:35:33.018Z,5.63
2022-08-18T21:38:06.204Z,6.78
2022-08-18T21:40:39.723Z,6.88
2022-08-18T21:43:08.393Z,6.78
2022-08-18T21:45:47.623Z,7.60
2022-08-18T21:48:14.691Z,6.05
2022-08-18T21:50:50.704Z,8.60
2022-08-18T21:53:24.620Z,6.15
2022-08-18T21:55:56.185Z,6.70
2022-08-18T21:58:45.294Z,6.82
2022-08-18T22:01:23.034Z,7.28
2022-08-18T22:04:00.200Z,6.55
2022-08-18T22:06:32.464Z,6.47
2022-08-18T22:09:31.712Z,6.13
2022-08-18T22:12:38.526Z,6.05
2022-08-18T22:15:11.893Z,4.20
2022-08-18T22:17:52.171Z,6.80
2022-08-18T22:20:45.941Z,7.38
2022-08-18T22:23:34.081Z,6.22
2022-08-18T22:26:19.995Z,5.03
2022-08-18T22:28:55.583Z,4.85
2022-08-18T22:31:24.045Z,5.25
2022-08-18T22:33:51.818Z,5.65
2022-08-18T22:36:23.200Z,7.45
2022-08-18T22:38:52.264Z,6.55
2022-08-18T22:41:19.784Z,6.45
2022-08-18T22:43:47.324Z,6.25
2022-08-18T22:46:24.141Z,5.60
2022-08-18T22:48:52.125Z,8.93
2022-08-18T22:51:22.653Z,7.75
2022-08-18T22:53:49.726Z,7.28
2022-08-18T22:56:16.170Z,7.85
2022-08-18T22:58:49.178Z,7.82
2022-08-18T23:01:17.233Z,8.15
2022-08-18T23:03:43.691Z,8.13
2022-08-18T23:06:10.518Z,6.43
2022-08-18T23:08:55.114Z,8.77
2022-08-18T23:11:24.701Z,7.47
2022-08-18T23:13:51.267Z,7.65
2022-08-18T23:16:31.899Z,8.95
2022-08-18T23:19:02.921Z,7.20
2022-08-18T23:21:34.755Z,7.68
2022-08-18T23:24:04.824Z,8.05
2022-08-18T23:26:31.727Z,8.43
2022-08-18T23:28:58.402Z,7.78
2022-08-18T23:31:24.908Z,9.10
2022-08-18T23:33:51.462Z,6.60
2022-08-18T23:36:17.942Z,7.18
2022-08-18T23:38:44.714Z,6.53
2022-08-18T23:41:13.551Z,6.72
2022-08-18T23:43:41.387Z,6.78
2022-08-18T23:46:16.382Z,7.47
2022-08-18T23:48:49.529Z,6.40
2022-08-18T23:51:34.677Z,6.50
2022-08-18T23:54:06.604Z,6.82
2022-08-18T23:56:34.277Z,7.03
2022-08-18T23:59:01.024Z,7.65
